Epic Balta — 9VED8 — position and weather

sailwx.info

Track history (hours):
 
Tides and Currents Weather Stations Pressure Air Temp Water Temp Dewpoint Dewpoint Depression Visibility Wind Speed Wind Dir Waves Ship Positions

Epic Balta

Last reported at 2016-Dec-02 08:33 UTC. Time now 2016-Dec-09 05:56 UTC.
Position N 11°03' W 062°01'.

Length 100 m; draft 5.5 m.

Type: Ship (hazmat cat D). MMSI: 565525000.

Date/timePositionNaut miles runAvg speedWind from/ knotsBaromVisibWave heightAir tempDewpointWater temp
2016-Dec-02 08:33N 11°03' W 062°01'1211.9
2016-Dec-02 07:33N 10°53' W 061°54'1212.1
2016-Dec-02 06:33N 10°43' W 061°48'1111.1
2016-Dec-02 05:33N 10°33' W 061°42'1111.5
2016-Dec-02 04:33N 10°25' W 061°34'5 5.4
2016-Dec-02 03:33N 10°23' W 061°29'0 0.0
2016-Dec-02 02:33N 10°23' W 061°29'0 0.0
2016-Dec-02 01:27N 10°23' W 061°29'0 0.0
2016-Dec-02 00:33N 10°23' W 061°29'0 0.0
2016-Dec-01 23:33N 10°23' W 061°29'0 0.0
2016-Dec-01 22:33N 10°23' W 061°29'0 0.0
2016-Dec-01 21:33N 10°23' W 061°29'0 0.0
2016-Dec-01 20:33N 10°23' W 061°29'0 0.0
2016-Dec-01 19:33N 10°23' W 061°29'0 0.0
2016-Dec-01 18:33N 10°23' W 061°29'0 0.0
2016-Dec-01 17:21N 10°23' W 061°29'0 0.0
2016-Dec-01 15:33N 10°23' W 061°29'0 0.0
2016-Dec-01 14:27N 10°23' W 061°29'0 0.0
2016-Dec-01 13:33N 10°23' W 061°29'0 0.0
2016-Dec-01 12:33N 10°23' W 061°29'0 0.0
2016-Dec-01 11:33N 10°23' W 061°29'0 0.0
2016-Dec-01 10:27N 10°23' W 061°29'0 0.0
2016-Dec-01 09:33N 10°23' W 061°29'0 0.0
2016-Dec-01 08:33N 10°23' W 061°29'0 0.0
2016-Dec-01 07:27N 10°23' W 061°29'0 0.0
2016-Dec-01 06:33N 10°23' W 061°29'0 0.0
2016-Dec-01 05:33N 10°23' W 061°29'0 0.0
2016-Dec-01 04:15N 10°23' W 061°29'0 0.0
2016-Dec-01 03:33N 10°23' W 061°29'0 0.0
2016-Dec-01 02:33N 10°23' W 061°29'0 0.0
2016-Dec-01 01:33N 10°23' W 061°29'0 0.0
2016-Dec-01 00:33N 10°23' W 061°29'0 0.0
2016-Nov-30 23:33N 10°23' W 061°29'0 0.0
2016-Nov-30 22:33N 10°23' W 061°29'0 0.0
2016-Nov-30 21:33N 10°23' W 061°29'0 0.0
2016-Nov-30 20:18N 10°23' W 061°29'1 1.5
2016-Nov-30 19:33N 10°23' W 061°30'3 2.9
2016-Nov-30 18:32N 10°22' W 061°33'0 0.0
2016-Nov-30 17:32N 10°22' W 061°33'0 0.1
2016-Nov-30 16:32N 10°22' W 061°33'0 0.0
2016-Nov-30 15:32N 10°22' W 061°33'0 0.0
2016-Nov-30 14:32N 10°22' W 061°33'0 0.0
2016-Nov-30 13:32N 10°22' W 061°33'0 0.0
2016-Nov-30 12:32N 10°22' W 061°33'0 0.0
2016-Nov-30 11:32N 10°22' W 061°33'0 0.0
2016-Nov-30 10:32N 10°22' W 061°33'0 0.0
2016-Nov-30 09:32N 10°22' W 061°33'0 0.0
2016-Nov-30 08:32N 10°22' W 061°33'0 0.0
2016-Nov-30 07:32N 10°22' W 061°33'0 0.0
2016-Nov-30 06:32N 10°22' W 061°33'0 0.0
2016-Nov-30 05:32N 10°22' W 061°33'0 0.0
2016-Nov-30 04:32N 10°22' W 061°33'0 0.0
2016-Nov-30 03:29N 10°22' W 061°33'0 0.0
2016-Nov-30 02:32N 10°22' W 061°33'0 0.0
2016-Nov-30 01:32N 10°22' W 061°33'0 0.0
2016-Nov-30 00:32N 10°22' W 061°33'0 0.0
2016-Nov-29 23:32N 10°22' W 061°33'0 0.0
2016-Nov-29 22:32N 10°22' W 061°33'0 0.0
2016-Nov-29 21:32N 10°22' W 061°33'0 0.0
2016-Nov-29 20:26N 10°22' W 061°33'0 0.0
2016-Nov-29 19:32N 10°22' W 061°33'0 0.0
2016-Nov-29 18:32N 10°22' W 061°33'0 0.0
2016-Nov-29 17:32N 10°22' W 061°33'0 0.0
2016-Nov-29 16:32N 10°22' W 061°33'0 0.0
2016-Nov-29 15:32N 10°22' W 061°33'0 0.0
2016-Nov-29 14:32N 10°22' W 061°33'0 0.0
2016-Nov-29 13:29N 10°22' W 061°33'0 0.0
2016-Nov-29 12:32N 10°22' W 061°33'0 0.0
2016-Nov-29 11:32N 10°22' W 061°33'0 0.0
2016-Nov-29 10:32N 10°22' W 061°33'0 0.0
2016-Nov-29 09:32N 10°22' W 061°33'0 0.0
2016-Nov-29 08:32N 10°22' W 061°33'0 0.0
2016-Nov-29 07:29N 10°22' W 061°33'0 0.0
2016-Nov-29 06:32N 10°22' W 061°33'0 0.0
2016-Nov-29 05:32N 10°22' W 061°33'0 0.0
2016-Nov-29 04:29N 10°22' W 061°33'0 0.0
2016-Nov-29 03:32N 10°22' W 061°33'0 0.0
2016-Nov-29 02:32N 10°22' W 061°33'0 0.0
2016-Nov-29 01:29N 10°22' W 061°33'3 2.9
2016-Nov-29 00:33N 10°24' W 061°34'1211.6
2016-Nov-28 23:33N 10°33' W 061°42'1010.3
2016-Nov-28 22:33N 10°42' W 061°47'1110.5
2016-Nov-28 21:32N 10°48' W 061°38'1212.3
2016-Nov-28 20:33N 10°53' W 061°27'1812.7
2016-Nov-28 19:10N 11°00' W 061°11'19 0.4
2016-Nov-26 20:27N 10°53' W 061°29'1112.0
2016-Nov-26 19:33N 10°48' W 061°39'1111.5
2016-Nov-26 18:33N 10°41' W 061°48'1211.7
2016-Nov-26 17:33N 10°31' W 061°41'1211.7
2016-Nov-26 16:33N 10°23' W 061°33'5 4.9
2016-Nov-26 15:33N 10°19' W 061°30'1 1.2
2016-Nov-26 14:31N 10°19' W 061°29'0 0.0
2016-Nov-26 13:31N 10°19' W 061°29'0 0.0
2016-Nov-26 12:25N 10°19' W 061°29'0 0.0
2016-Nov-26 11:31N 10°19' W 061°29'0 0.0
2016-Nov-26 10:31N 10°19' W 061°29'0 0.0
2016-Nov-26 09:28N 10°19' W 061°29'0 0.0
2016-Nov-26 08:31N 10°19' W 061°29'0 0.0
2016-Nov-26 07:28N 10°19' W 061°29'0 0.0
2016-Nov-26 06:31N 10°19' W 061°29'0 0.0
2016-Nov-26 05:31N 10°19' W 061°29'0 0.0
2016-Nov-26 04:31N 10°19' W 061°29'0 0.0
2016-Nov-26 03:31N 10°19' W 061°29'0 0.0
2016-Nov-26 02:31N 10°19' W 061°29'0 0.0
2016-Nov-26 01:31N 10°19' W 061°29'0 0.0
2016-Nov-26 00:31N 10°19' W 061°29'0 0.0
2016-Nov-25 23:28N 10°19' W 061°29'0 0.0
2016-Nov-25 22:31N 10°19' W 061°29'0 0.0
2016-Nov-25 21:31N 10°19' W 061°29'0 0.0
2016-Nov-25 20:31N 10°19' W 061°29'0 0.0
2016-Nov-25 19:31N 10°19' W 061°29'0 0.0
2016-Nov-25 18:31N 10°19' W 061°29'0 0.0
2016-Nov-25 17:28N 10°19' W 061°29'0 0.0
2016-Nov-25 16:31N 10°19' W 061°29'0 0.0
2016-Nov-25 15:31N 10°19' W 061°29'0 0.0
2016-Nov-25 14:31N 10°19' W 061°29'0 0.0
2016-Nov-25 13:31N 10°19' W 061°29'0 0.0
2016-Nov-25 12:31N 10°19' W 061°29'1 1.3
2016-Nov-25 11:34N 10°19' W 061°30'0 0.0
2016-Nov-25 10:24N 10°19' W 061°30'0 0.0
2016-Nov-25 09:30N 10°19' W 061°30'0 0.0
2016-Nov-25 08:33N 10°19' W 061°30'0 0.0
2016-Nov-25 07:33N 10°19' W 061°30'0 0.0
2016-Nov-25 06:33N 10°19' W 061°30'0 0.0
2016-Nov-25 05:33N 10°19' W 061°30'0 0.0
2016-Nov-25 04:33N 10°19' W 061°30'0 0.0
2016-Nov-25 03:30N 10°19' W 061°30'0 0.0
2016-Nov-25 02:30N 10°19' W 061°30'0 0.0
2016-Nov-25 01:30N 10°19' W 061°30'0 0.0
2016-Nov-25 00:33N 10°19' W 061°30'0 0.0
2016-Nov-24 23:24N 10°19' W 061°30'0 0.0
2016-Nov-24 22:30N 10°19' W 061°30'4 4.7
2016-Nov-24 21:33N 10°22' W 061°34'1212.0
2016-Nov-24 20:33N 10°31' W 061°41'1111.4
2016-Nov-24 19:33N 10°41' W 061°47'1111.3
2016-Nov-24 18:33N 10°51' W 061°53'1312.0
2016-Nov-24 17:28N 11°02' W 062°00'  
Track history (hours):
 
Tides and Currents Weather Stations Pressure Air Temp Water Temp Dewpoint Dewpoint Depression Visibility Wind Speed Wind Dir Waves Ship Positions

Epic Balta

Last reported at 2016-Dec-02 08:33 UTC. Time now 2016-Dec-09 05:56 UTC.
Position N 11°03' W 062°01'.

Length 100 m; draft 5.5 m.

Type: Ship (hazmat cat D). MMSI: 565525000.

Date/timePositionNaut miles runAvg speedWind from/ knotsBaromVisibWave heightAir tempDewpointWater temp
2016-Dec-02 08:33N 11°03' W 062°01'1211.9
2016-Dec-02 07:33N 10°53' W 061°54'1212.1
2016-Dec-02 06:33N 10°43' W 061°48'1111.1
2016-Dec-02 05:33N 10°33' W 061°42'1111.5
2016-Dec-02 04:33N 10°25' W 061°34'5 5.4
2016-Dec-02 03:33N 10°23' W 061°29'0 0.0
2016-Dec-02 02:33N 10°23' W 061°29'0 0.0
2016-Dec-02 01:27N 10°23' W 061°29'0 0.0
2016-Dec-02 00:33N 10°23' W 061°29'0 0.0
2016-Dec-01 23:33N 10°23' W 061°29'0 0.0
2016-Dec-01 22:33N 10°23' W 061°29'0 0.0
2016-Dec-01 21:33N 10°23' W 061°29'0 0.0
2016-Dec-01 20:33N 10°23' W 061°29'0 0.0
2016-Dec-01 19:33N 10°23' W 061°29'0 0.0
2016-Dec-01 18:33N 10°23' W 061°29'0 0.0
2016-Dec-01 17:21N 10°23' W 061°29'0 0.0
2016-Dec-01 15:33N 10°23' W 061°29'0 0.0
2016-Dec-01 14:27N 10°23' W 061°29'0 0.0
2016-Dec-01 13:33N 10°23' W 061°29'0 0.0
2016-Dec-01 12:33N 10°23' W 061°29'0 0.0
2016-Dec-01 11:33N 10°23' W 061°29'0 0.0
2016-Dec-01 10:27N 10°23' W 061°29'0 0.0
2016-Dec-01 09:33N 10°23' W 061°29'0 0.0
2016-Dec-01 08:33N 10°23' W 061°29'0 0.0
2016-Dec-01 07:27N 10°23' W 061°29'0 0.0
2016-Dec-01 06:33N 10°23' W 061°29'0 0.0
2016-Dec-01 05:33N 10°23' W 061°29'0 0.0
2016-Dec-01 04:15N 10°23' W 061°29'0 0.0
2016-Dec-01 03:33N 10°23' W 061°29'0 0.0
2016-Dec-01 02:33N 10°23' W 061°29'0 0.0
2016-Dec-01 01:33N 10°23' W 061°29'0 0.0
2016-Dec-01 00:33N 10°23' W 061°29'0 0.0
2016-Nov-30 23:33N 10°23' W 061°29'0 0.0
2016-Nov-30 22:33N 10°23' W 061°29'0 0.0
2016-Nov-30 21:33N 10°23' W 061°29'0 0.0
2016-Nov-30 20:18N 10°23' W 061°29'1 1.5
2016-Nov-30 19:33N 10°23' W 061°30'3 2.9
2016-Nov-30 18:32N 10°22' W 061°33'0 0.0
2016-Nov-30 17:32N 10°22' W 061°33'0 0.1
2016-Nov-30 16:32N 10°22' W 061°33'0 0.0
2016-Nov-30 15:32N 10°22' W 061°33'0 0.0
2016-Nov-30 14:32N 10°22' W 061°33'0 0.0
2016-Nov-30 13:32N 10°22' W 061°33'0 0.0
2016-Nov-30 12:32N 10°22' W 061°33'0 0.0
2016-Nov-30 11:32N 10°22' W 061°33'0 0.0
2016-Nov-30 10:32N 10°22' W 061°33'0 0.0
2016-Nov-30 09:32N 10°22' W 061°33'0 0.0
2016-Nov-30 08:32N 10°22' W 061°33'0 0.0
2016-Nov-30 07:32N 10°22' W 061°33'0 0.0
2016-Nov-30 06:32N 10°22' W 061°33'0 0.0
2016-Nov-30 05:32N 10°22' W 061°33'0 0.0
2016-Nov-30 04:32N 10°22' W 061°33'0 0.0
2016-Nov-30 03:29N 10°22' W 061°33'0 0.0
2016-Nov-30 02:32N 10°22' W 061°33'0 0.0
2016-Nov-30 01:32N 10°22' W 061°33'0 0.0
2016-Nov-30 00:32N 10°22' W 061°33'0 0.0
2016-Nov-29 23:32N 10°22' W 061°33'0 0.0
2016-Nov-29 22:32N 10°22' W 061°33'0 0.0
2016-Nov-29 21:32N 10°22' W 061°33'0 0.0
2016-Nov-29 20:26N 10°22' W 061°33'0 0.0
2016-Nov-29 19:32N 10°22' W 061°33'0 0.0
2016-Nov-29 18:32N 10°22' W 061°33'0 0.0
2016-Nov-29 17:32N 10°22' W 061°33'0 0.0
2016-Nov-29 16:32N 10°22' W 061°33'0 0.0
2016-Nov-29 15:32N 10°22' W 061°33'0 0.0
2016-Nov-29 14:32N 10°22' W 061°33'0 0.0
2016-Nov-29 13:29N 10°22' W 061°33'0 0.0
2016-Nov-29 12:32N 10°22' W 061°33'0 0.0
2016-Nov-29 11:32N 10°22' W 061°33'0 0.0
2016-Nov-29 10:32N 10°22' W 061°33'0 0.0
2016-Nov-29 09:32N 10°22' W 061°33'0 0.0
2016-Nov-29 08:32N 10°22' W 061°33'0 0.0
2016-Nov-29 07:29N 10°22' W 061°33'0 0.0
2016-Nov-29 06:32N 10°22' W 061°33'0 0.0
2016-Nov-29 05:32N 10°22' W 061°33'0 0.0
2016-Nov-29 04:29N 10°22' W 061°33'0 0.0
2016-Nov-29 03:32N 10°22' W 061°33'0 0.0
2016-Nov-29 02:32N 10°22' W 061°33'0 0.0
2016-Nov-29 01:29N 10°22' W 061°33'3 2.9
2016-Nov-29 00:33N 10°24' W 061°34'1211.6
2016-Nov-28 23:33N 10°33' W 061°42'1010.3
2016-Nov-28 22:33N 10°42' W 061°47'1110.5
2016-Nov-28 21:32N 10°48' W 061°38'1212.3
2016-Nov-28 20:33N 10°53' W 061°27'1812.7
2016-Nov-28 19:10N 11°00' W 061°11'19 0.4
2016-Nov-26 20:27N 10°53' W 061°29'1112.0
2016-Nov-26 19:33N 10°48' W 061°39'1111.5
2016-Nov-26 18:33N 10°41' W 061°48'1211.7
2016-Nov-26 17:33N 10°31' W 061°41'1211.7
2016-Nov-26 16:33N 10°23' W 061°33'5 4.9
2016-Nov-26 15:33N 10°19' W 061°30'1 1.2
2016-Nov-26 14:31N 10°19' W 061°29'0 0.0
2016-Nov-26 13:31N 10°19' W 061°29'0 0.0
2016-Nov-26 12:25N 10°19' W 061°29'0 0.0
2016-Nov-26 11:31N 10°19' W 061°29'0 0.0
2016-Nov-26 10:31N 10°19' W 061°29'0 0.0
2016-Nov-26 09:28N 10°19' W 061°29'0 0.0
2016-Nov-26 08:31N 10°19' W 061°29'0 0.0
2016-Nov-26 07:28N 10°19' W 061°29'0 0.0
2016-Nov-26 06:31N 10°19' W 061°29'0 0.0
2016-Nov-26 05:31N 10°19' W 061°29'0 0.0
2016-Nov-26 04:31N 10°19' W 061°29'0 0.0
2016-Nov-26 03:31N 10°19' W 061°29'0 0.0
2016-Nov-26 02:31N 10°19' W 061°29'0 0.0
2016-Nov-26 01:31N 10°19' W 061°29'0 0.0
2016-Nov-26 00:31N 10°19' W 061°29'0 0.0
2016-Nov-25 23:28N 10°19' W 061°29'0 0.0
2016-Nov-25 22:31N 10°19' W 061°29'0 0.0
2016-Nov-25 21:31N 10°19' W 061°29'0 0.0
2016-Nov-25 20:31N 10°19' W 061°29'0 0.0
2016-Nov-25 19:31N 10°19' W 061°29'0 0.0
2016-Nov-25 18:31N 10°19' W 061°29'0 0.0
2016-Nov-25 17:28N 10°19' W 061°29'0 0.0
2016-Nov-25 16:31N 10°19' W 061°29'0 0.0
2016-Nov-25 15:31N 10°19' W 061°29'0 0.0
2016-Nov-25 14:31N 10°19' W 061°29'0 0.0
2016-Nov-25 13:31N 10°19' W 061°29'0 0.0
2016-Nov-25 12:31N 10°19' W 061°29'1 1.3
2016-Nov-25 11:34N 10°19' W 061°30'0 0.0
2016-Nov-25 10:24N 10°19' W 061°30'0 0.0
2016-Nov-25 09:30N 10°19' W 061°30'0 0.0
2016-Nov-25 08:33N 10°19' W 061°30'0 0.0
2016-Nov-25 07:33N 10°19' W 061°30'0 0.0
2016-Nov-25 06:33N 10°19' W 061°30'0 0.0
2016-Nov-25 05:33N 10°19' W 061°30'0 0.0
2016-Nov-25 04:33N 10°19' W 061°30'0 0.0
2016-Nov-25 03:30N 10°19' W 061°30'0 0.0
2016-Nov-25 02:30N 10°19' W 061°30'0 0.0
2016-Nov-25 01:30N 10°19' W 061°30'0 0.0
2016-Nov-25 00:33N 10°19' W 061°30'0 0.0
2016-Nov-24 23:24N 10°19' W 061°30'0 0.0
2016-Nov-24 22:30N 10°19' W 061°30'4 4.7
2016-Nov-24 21:33N 10°22' W 061°34'1212.0
2016-Nov-24 20:33N 10°31' W 061°41'1111.4
2016-Nov-24 19:33N 10°41' W 061°47'1111.3
2016-Nov-24 18:33N 10°51' W 061°53'1312.0
2016-Nov-24 17:28N 11°02' W 062°00'  

Dump ship's entire track history